createdAt,value
2019-01-02T00:02:03.610Z,3.80
2019-01-02T00:04:33.240Z,3.83
2019-01-02T00:07:02.916Z,3.57
2019-01-02T00:09:32.566Z,3.30
2019-01-02T00:12:02.654Z,3.63
2019-01-02T00:14:33.318Z,4.27
2019-01-02T00:17:03.394Z,3.40
2019-01-02T00:19:32.985Z,3.47
2019-01-02T00:22:02.586Z,3.80
2019-01-02T00:24:32.188Z,3.90
2019-01-02T00:27:18.632Z,3.90
2019-01-02T00:29:48.598Z,3.90
2019-01-02T00:32:18.301Z,3.27
2019-01-02T00:34:47.896Z,3.60
2019-01-02T00:37:17.500Z,3.17
2019-01-02T00:39:47.097Z,3.73
2019-01-02T00:42:16.709Z,3.40
2019-01-02T00:44:46.304Z,4.23
2019-01-02T00:47:15.921Z,3.87
2019-01-02T00:49:45.502Z,4.37
2019-01-02T00:52:15.531Z,4.13
2019-01-02T00:54:45.176Z,3.90
2019-01-02T00:57:15.156Z,4.47
2019-01-02T00:59:44.753Z,4.40
2019-01-02T01:02:14.738Z,4.33
2019-01-02T01:04:44.327Z,3.67
2019-01-02T01:07:14.418Z,3.93
2019-01-02T01:09:44.030Z,4.23
2019-01-02T01:12:13.617Z,3.40
2019-01-02T01:14:43.227Z,3.30
2019-01-02T01:17:12.831Z,3.20
2019-01-02T01:19:42.489Z,3.47
2019-01-02T01:22:12.457Z,3.90
2019-01-02T01:24:42.065Z,4.00
2019-01-02T01:27:11.937Z,3.47
2019-01-02T01:29:41.553Z,3.93
2019-01-02T01:32:11.139Z,4.23
2019-01-02T01:34:41.219Z,3.83
2019-01-02T01:37:10.827Z,3.03
2019-01-02T01:39:40.439Z,3.43
2019-01-02T01:42:10.399Z,3.73
2019-01-02T01:44:40.011Z,3.67
2019-01-02T01:47:09.880Z,3.37
2019-01-02T01:49:39.495Z,2.73
2019-01-02T01:52:09.107Z,3.50
2019-01-02T01:54:39.089Z,3.93
2019-01-02T01:57:08.692Z,4.43
2019-01-02T01:59:38.300Z,4.27
2019-01-02T02:02:07.893Z,4.07
2019-01-02T02:04:37.499Z,3.37
2019-01-02T02:07:07.261Z,4.20
2019-01-02T02:09:36.876Z,3.47
2019-01-02T02:12:06.474Z,4.07
2019-01-02T02:14:36.462Z,3.00
2019-01-02T02:17:06.058Z,3.40
2019-01-02T02:19:35.676Z,4.17
2019-01-02T02:22:05.259Z,3.33
2019-01-02T02:24:34.864Z,4.00
2019-01-02T02:27:04.645Z,3.37
2019-01-02T02:29:34.252Z,3.83
2019-01-02T02:32:03.865Z,3.33
2019-01-02T02:34:33.454Z,3.77
2019-01-02T02:37:03.067Z,3.27
2019-01-02T02:39:32.660Z,4.07
2019-01-02T02:42:02.635Z,3.50
2019-01-02T02:44:32.528Z,4.10
2019-01-02T02:47:02.511Z,3.20
2019-01-02T02:49:32.095Z,3.30
2019-01-02T02:52:01.700Z,3.47
2019-01-02T02:54:31.290Z,3.43
2019-01-02T02:57:00.895Z,3.60
2019-01-02T02:59:30.501Z,3.43
2019-01-02T03:02:00.490Z,3.80
2019-01-02T03:04:30.490Z,3.30
2019-01-02T03:07:00.464Z,3.47
2019-01-02T03:09:30.371Z,3.60
2019-01-02T03:11:59.958Z,3.03
2019-01-02T03:14:29.564Z,3.50
2019-01-02T03:16:59.530Z,4.90
2019-01-02T03:19:29.506Z,3.57
2019-01-02T03:21:59.376Z,3.60
2019-01-02T03:24:29.360Z,3.40
2019-01-02T03:26:59.325Z,4.20
2019-01-02T03:29:28.921Z,3.43
2019-01-02T03:31:58.901Z,3.57
2019-01-02T03:34:28.784Z,4.17
2019-01-02T03:36:58.387Z,4.10
2019-01-02T03:39:27.996Z,3.23
2019-01-02T03:41:57.594Z,3.47
2019-01-02T03:44:27.198Z,3.70
2019-01-02T03:46:56.800Z,3.90
2019-01-02T03:49:26.390Z,3.40
2019-01-02T03:51:55.990Z,4.00
2019-01-02T03:54:25.592Z,3.50
2019-01-02T03:56:55.194Z,4.43
2019-01-02T03:59:24.787Z,3.67
2019-01-02T04:01:54.397Z,3.77
2019-01-02T04:04:23.994Z,3.23
2019-01-02T04:06:53.602Z,3.43
2019-01-02T04:09:23.194Z,4.37
2019-01-02T04:11:52.791Z,5.53
2019-01-02T04:14:22.378Z,3.20
2019-01-02T04:16:51.986Z,4.43
2019-01-02T04:19:21.582Z,3.47
2019-01-02T04:21:51.189Z,3.83
2019-01-02T04:24:20.778Z,4.07
2019-01-02T04:26:50.370Z,4.30
2019-01-02T04:29:39.414Z,3.73
2019-01-02T04:32:10.366Z,4.13
2019-01-02T04:34:40.195Z,4.47
2019-01-02T04:37:09.791Z,3.93
2019-01-02T04:39:39.399Z,3.90
2019-01-02T04:42:08.998Z,3.97
2019-01-02T04:44:38.616Z,3.70
2019-01-02T04:47:08.195Z,3.27
2019-01-02T04:49:37.807Z,4.17
2019-01-02T04:52:07.393Z,3.70
2019-01-02T04:54:36.993Z,3.33
2019-01-02T04:57:06.597Z,3.97
2019-01-02T04:59:36.211Z,3.40
2019-01-02T05:02:05.803Z,4.43
2019-01-02T05:04:35.426Z,3.97
2019-01-02T05:07:05.035Z,5.20
2019-01-02T05:09:34.623Z,4.10
2019-01-02T05:12:04.230Z,3.87
2019-01-02T05:14:33.831Z,3.97
2019-01-02T05:17:03.443Z,4.40
2019-01-02T05:19:33.055Z,3.97
2019-01-02T05:22:02.651Z,5.00
2019-01-02T05:24:32.238Z,3.90
2019-01-02T05:27:01.854Z,4.30
2019-01-02T05:29:31.455Z,4.00
2019-01-02T05:32:01.095Z,4.53
2019-01-02T05:34:30.682Z,3.73
2019-01-02T05:37:01.322Z,4.10
2019-01-02T05:39:30.947Z,3.60
2019-01-02T05:42:00.557Z,3.70
2019-01-02T05:44:30.153Z,4.47
2019-01-02T05:46:59.761Z,3.80
2019-01-02T05:49:29.357Z,4.17
2019-01-02T05:51:58.962Z,3.83
2019-01-02T05:54:28.566Z,4.33
2019-01-02T05:56:59.252Z,4.37
2019-01-02T05:59:28.851Z,4.27
2019-01-02T06:01:58.540Z,3.60
2019-01-02T06:04:28.146Z,4.73
2019-01-02T06:06:57.758Z,3.93
2019-01-02T06:09:27.362Z,3.30
2019-01-02T06:11:56.971Z,3.63
2019-01-02T06:14:26.573Z,3.57
2019-01-02T06:16:56.184Z,4.03
2019-01-02T06:19:25.781Z,3.90
2019-01-02T06:21:55.373Z,3.90
2019-01-02T06:24:24.988Z,4.07
2019-01-02T06:26:54.576Z,4.40
2019-01-02T06:29:24.170Z,3.93
2019-01-02T06:31:53.750Z,3.47
2019-01-02T06:34:23.372Z,4.47
2019-01-02T06:36:52.979Z,4.07
2019-01-02T06:39:23.052Z,4.37
2019-01-02T06:41:52.641Z,3.93
2019-01-02T06:44:22.262Z,3.83
2019-01-02T06:46:51.868Z,4.53
2019-01-02T06:49:21.486Z,3.23
2019-01-02T06:51:51.074Z,4.73
2019-01-02T06:54:20.679Z,3.97
2019-01-02T06:56:50.276Z,4.00
2019-01-02T06:59:19.881Z,3.80
2019-01-02T07:01:49.487Z,3.97
2019-01-02T07:04:19.096Z,3.80
2019-01-02T07:06:48.683Z,3.37
2019-01-02T07:09:18.291Z,3.70
2019-01-02T07:11:47.894Z,3.93
2019-01-02T07:14:17.503Z,3.33
2019-01-02T07:16:47.098Z,3.73
2019-01-02T07:19:16.682Z,4.43
2019-01-02T07:21:46.303Z,3.53
2019-01-02T07:24:15.898Z,3.27
2019-01-02T07:26:45.522Z,3.30
2019-01-02T07:29:15.208Z,3.87
2019-01-02T07:31:44.894Z,3.07
2019-01-02T07:34:17.037Z,3.30
2019-01-02T07:37:10.859Z,3.70
2019-01-02T07:39:49.319Z,4.10
2019-01-02T07:42:40.257Z,3.40
2019-01-02T07:45:18.895Z,3.53
2019-01-02T07:48:06.547Z,3.07
2019-01-02T07:50:39.391Z,3.60
2019-01-02T07:53:28.611Z,2.93
2019-01-02T07:56:12.795Z,2.87
2019-01-02T07:59:05.287Z,3.57
2019-01-02T08:01:44.105Z,2.57
2019-01-02T08:04:29.118Z,3.47
2019-01-02T08:07:16.938Z,2.93
2019-01-02T08:09:49.802Z,2.83
2019-01-02T08:12:28.498Z,3.23
2019-01-02T08:15:38.311Z,3.33
2019-01-02T08:18:11.164Z,3.17
2019-01-02T08:21:10.851Z,4.43
2019-01-02T08:23:43.694Z,3.00
2019-01-02T08:26:39.278Z,3.33
2019-01-02T08:29:20.290Z,3.07
2019-01-02T08:31:58.938Z,2.50
2019-01-02T08:34:47.002Z,3.37
2019-01-02T08:37:28.682Z,3.50
2019-01-02T08:40:28.456Z,2.50
2019-01-02T08:43:03.341Z,3.20
2019-01-02T08:45:48.126Z,3.50
2019-01-02T08:48:35.276Z,3.10
2019-01-02T08:51:24.706Z,2.37
2019-01-02T08:54:25.574Z,3.77
2019-01-02T08:57:32.832Z,3.77
2019-01-02T09:00:25.723Z,3.17
2019-01-02T09:02:58.652Z,3.60
2019-01-02T09:05:31.498Z,3.83
2019-01-02T09:08:19.250Z,4.00
2019-01-02T09:11:00.980Z,3.27
2019-01-02T09:13:42.622Z,3.17
2019-01-02T09:16:30.591Z,3.70
2019-01-02T09:19:14.998Z,3.10
2019-01-02T09:21:50.766Z,3.20
2019-01-02T09:24:44.386Z,3.27
2019-01-02T09:27:32.333Z,3.50
2019-01-02T09:30:21.610Z,3.63
2019-01-02T09:32:54.458Z,4.00
2019-01-02T09:35:31.370Z,3.20
2019-01-02T09:38:20.758Z,3.13
2019-01-02T09:41:08.468Z,3.97
2019-01-02T09:43:46.894Z,3.37
2019-01-02T09:46:31.610Z,3.03
2019-01-02T09:49:16.402Z,3.97
2019-01-02T09:51:52.235Z,3.37
2019-01-02T09:54:48.846Z,3.13
2019-01-02T09:57:41.190Z,3.43
2019-01-02T10:00:14.038Z,6.50
2019-01-02T10:03:18.726Z,3.73
2019-01-02T10:05:54.255Z,2.90
2019-01-02T10:08:50.576Z,3.97
2019-01-02T10:11:45.240Z,2.60
2019-01-02T10:14:20.817Z,4.03
2019-01-02T10:17:07.975Z,3.40
2019-01-02T10:19:59.110Z,3.10
2019-01-02T10:22:51.323Z,2.33
2019-01-02T10:25:49.423Z,3.37
2019-01-02T10:28:34.530Z,3.03
2019-01-02T10:31:19.255Z,3.33
2019-01-02T10:34:27.282Z,3.40
2019-01-02T10:37:09.165Z,3.17
2019-01-02T10:39:58.757Z,3.03
2019-01-02T10:42:46.559Z,3.87
2019-01-02T10:45:34.275Z,3.43
2019-01-02T10:48:09.722Z,4.00
2019-01-02T10:50:59.331Z,3.57
2019-01-02T10:53:44.179Z,2.93
2019-01-02T10:56:26.018Z,3.97
2019-01-02T10:59:21.255Z,3.47
2019-01-02T11:01:54.113Z,3.60
2019-01-02T11:04:39.280Z,3.63
2019-01-02T11:07:14.963Z,3.73
2019-01-02T11:09:59.735Z,3.27
2019-01-02T11:12:52.258Z,4.13
2019-01-02T11:15:40.229Z,3.27
2019-01-02T11:18:30.924Z,3.93
2019-01-02T11:21:12.441Z,3.00
2019-01-02T11:24:17.319Z,3.17
2019-01-02T11:27:12.474Z,3.47
2019-01-02T11:29:51.283Z,2.73
2019-01-02T11:32:36.135Z,3.13
2019-01-02T11:35:20.793Z,3.13
2019-01-02T11:38:11.743Z,3.97
2019-01-02T11:40:56.359Z,3.20
2019-01-02T11:43:41.107Z,3.53
2019-01-02T11:46:10.735Z,3.40
2019-01-02T11:48:40.337Z,3.83
2019-01-02T11:51:09.988Z,3.73
2019-01-02T11:53:39.587Z,3.70
2019-01-02T11:56:09.201Z,4.03
2019-01-02T11:58:38.807Z,5.03
2019-01-02T12:01:08.447Z,4.87
2019-01-02T12:03:38.081Z,6.10
2019-01-02T12:06:07.668Z,5.37
2019-01-02T12:08:37.279Z,4.90
2019-01-02T12:11:06.871Z,5.43
2019-01-02T12:13:36.483Z,5.93
2019-01-02T12:16:06.080Z,6.40
2019-01-02T12:18:35.688Z,6.37
2019-01-02T12:21:05.287Z,5.10
2019-01-02T12:23:34.970Z,4.43
2019-01-02T12:26:04.561Z,4.70
2019-01-02T12:28:34.195Z,4.37
2019-01-02T12:31:03.789Z,4.53
2019-01-02T12:33:33.431Z,4.60
2019-01-02T12:36:02.996Z,5.93
2019-01-02T12:38:32.627Z,5.00
2019-01-02T12:41:02.212Z,3.87
2019-01-02T12:43:31.829Z,4.53
2019-01-02T12:46:01.443Z,4.37
2019-01-02T12:48:31.048Z,3.30
2019-01-02T12:51:01.738Z,4.20
2019-01-02T12:53:31.319Z,4.30
2019-01-02T12:56:00.923Z,4.33
2019-01-02T12:58:30.528Z,4.07
2019-01-02T13:01:01.258Z,4.67
2019-01-02T13:03:43.305Z,4.97
2019-01-02T13:06:21.878Z,4.33
2019-01-02T13:08:58.264Z,4.20
2019-01-02T13:11:33.725Z,4.53
2019-01-02T13:14:15.153Z,4.27
2019-01-02T13:17:13.169Z,4.00
2019-01-02T13:20:22.884Z,4.10
2019-01-02T13:23:01.763Z,3.97
2019-01-02T13:25:34.632Z,4.67
2019-01-02T13:28:10.057Z,4.13
2019-01-02T13:30:45.747Z,4.57
2019-01-02T13:33:30.499Z,4.10
2019-01-02T13:36:09.088Z,3.50
2019-01-02T13:38:41.999Z,4.40
2019-01-02T13:41:26.336Z,4.23
2019-01-02T13:43:59.232Z,3.90
2019-01-02T13:46:56.577Z,3.13
2019-01-02T13:49:41.361Z,3.13
2019-01-02T13:52:10.949Z,3.40
2019-01-02T13:54:41.532Z,3.23
2019-01-02T13:57:11.123Z,3.47
2019-01-02T13:59:40.727Z,4.20
2019-01-02T14:02:10.330Z,4.20
2019-01-02T14:04:41.170Z,7.83
2019-01-02T14:07:11.742Z,5.53
2019-01-02T14:09:41.353Z,4.47
2019-01-02T14:12:10.959Z,5.60
2019-01-02T14:14:40.555Z,5.00
2019-01-02T14:17:10.141Z,4.60
2019-01-02T14:19:39.766Z,4.20
2019-01-02T14:22:09.349Z,5.07
2019-01-02T14:24:38.949Z,3.87
2019-01-02T14:27:08.559Z,4.40
2019-01-02T14:29:38.156Z,4.10
2019-01-02T14:32:07.763Z,4.43
2019-01-02T14:34:37.354Z,4.30
2019-01-02T14:37:06.969Z,3.47
2019-01-02T14:39:36.630Z,4.47
2019-01-02T14:42:06.261Z,4.17
2019-01-02T14:44:35.843Z,4.20
2019-01-02T14:47:05.469Z,4.17
2019-01-02T14:49:35.105Z,4.40
2019-01-02T14:52:04.770Z,3.87
2019-01-02T14:54:34.358Z,5.43
2019-01-02T14:57:04.042Z,4.23
2019-01-02T14:59:33.630Z,4.40
2019-01-02T15:02:03.214Z,3.73
2019-01-02T15:04:32.822Z,3.50
2019-01-02T15:07:02.410Z,4.20
2019-01-02T15:09:32.012Z,3.60
2019-01-02T15:12:01.612Z,3.77
2019-01-02T15:14:31.218Z,3.60
2019-01-02T15:17:00.826Z,3.33
2019-01-02T15:19:30.442Z,3.07
2019-01-02T15:22:04.869Z,3.70
2019-01-02T15:24:31.342Z,3.17
2019-01-02T15:27:00.967Z,3.37
2019-01-02T15:29:30.650Z,3.17
2019-01-02T15:32:00.280Z,3.03
2019-01-02T15:34:29.862Z,3.50
2019-01-02T15:36:59.472Z,3.20
2019-01-02T15:39:29.063Z,2.57
2019-01-02T15:41:58.674Z,2.97
2019-01-02T15:44:28.260Z,3.70
2019-01-02T15:46:57.869Z,3.43
2019-01-02T15:49:27.538Z,3.90
2019-01-02T15:51:57.146Z,3.43
2019-01-02T15:54:26.748Z,3.50
2019-01-02T15:56:56.342Z,3.93
2019-01-02T15:59:25.944Z,2.90
2019-01-02T16:01:55.534Z,3.40
2019-01-02T16:04:25.146Z,3.23
2019-01-02T16:06:54.749Z,3.87
2019-01-02T16:09:24.362Z,3.00
2019-01-02T16:11:55.074Z,3.60
2019-01-02T16:14:24.667Z,3.30
2019-01-02T16:16:54.277Z,3.40
2019-01-02T16:19:23.884Z,3.97
2019-01-02T16:21:53.474Z,3.67
2019-01-02T16:24:23.108Z,4.47
2019-01-02T16:26:52.711Z,2.90
2019-01-02T16:29:23.388Z,3.33
2019-01-02T16:31:52.994Z,4.23
2019-01-02T16:34:22.599Z,3.80
2019-01-02T16:36:52.194Z,3.43
2019-01-02T16:39:21.799Z,3.33
2019-01-02T16:41:51.410Z,5.40
2019-01-02T16:44:21.018Z,5.90
2019-01-02T16:46:50.618Z,4.73
2019-01-02T16:49:20.216Z,4.43
2019-01-02T16:51:49.849Z,5.10
2019-01-02T16:54:19.457Z,5.37
2019-01-02T16:56:49.069Z,5.13
2019-01-02T16:59:18.662Z,5.17
2019-01-02T17:01:48.267Z,4.70
2019-01-02T17:04:17.876Z,4.13
2019-01-02T17:06:47.512Z,4.10
2019-01-02T17:09:17.114Z,3.97
2019-01-02T17:11:46.740Z,4.10
2019-01-02T17:14:16.333Z,4.73
2019-01-02T17:16:45.954Z,4.03
2019-01-02T17:19:15.552Z,4.80
2019-01-02T17:21:45.166Z,4.37
2019-01-02T17:24:14.782Z,3.73
2019-01-02T17:26:44.384Z,5.03
2019-01-02T17:29:17.755Z,5.67
2019-01-02T17:31:47.358Z,4.87
2019-01-02T17:37:37.444Z,2.73
2019-01-02T17:51:06.490Z,1.20
2019-01-02T17:53:36.131Z,0.70
2019-01-02T18:16:19.636Z,5.30
2019-01-02T18:18:49.373Z,5.37
2019-01-02T18:21:19.061Z,6.90
2019-01-02T18:23:48.705Z,5.90
2019-01-02T18:26:18.457Z,5.73
2019-01-02T18:28:48.113Z,5.70
2019-01-02T18:31:17.781Z,5.93
2019-01-02T18:33:47.461Z,12.03
2019-01-02T18:36:17.069Z,8.60
2019-01-02T18:38:46.675Z,6.47
2019-01-02T18:41:16.273Z,5.67
2019-01-02T18:43:45.879Z,6.83
2019-01-02T18:46:15.482Z,6.33
2019-01-02T18:48:45.099Z,5.80
2019-01-02T18:51:14.703Z,5.07
2019-01-02T18:53:44.341Z,4.80
2019-01-02T18:56:13.958Z,5.33
2019-01-02T18:58:43.556Z,6.30
2019-01-02T19:01:13.156Z,5.50
2019-01-02T19:03:42.828Z,5.33
2019-01-02T19:06:12.530Z,5.50
2019-01-02T19:08:42.138Z,5.20
2019-01-02T19:11:11.736Z,5.33
2019-01-02T19:13:41.362Z,4.57
2019-01-02T19:16:10.972Z,5.83
2019-01-02T19:18:40.638Z,6.47
2019-01-02T19:21:10.276Z,5.60
2019-01-02T19:23:39.870Z,5.10
2019-01-02T19:26:09.618Z,5.60
2019-01-02T19:28:39.238Z,4.97
2019-01-02T19:31:08.889Z,4.67
2019-01-02T19:33:38.680Z,5.63
2019-01-02T19:36:08.288Z,6.20
2019-01-02T19:38:37.970Z,6.77
2019-01-02T19:41:07.580Z,6.37
2019-01-02T19:43:37.175Z,6.47
2019-01-02T19:46:06.792Z,5.90
2019-01-02T19:48:36.386Z,6.17
2019-01-02T19:51:06.001Z,5.47
2019-01-02T19:53:35.668Z,5.97
2019-01-02T19:56:05.274Z,5.07
2019-01-02T19:58:34.873Z,5.33
2019-01-02T20:01:04.499Z,5.67
2019-01-02T20:03:34.127Z,4.87
2019-01-02T20:06:03.778Z,5.60
2019-01-02T20:08:33.400Z,4.70
2019-01-02T20:11:03.028Z,5.43
2019-01-02T20:13:32.646Z,5.63
2019-01-02T20:16:02.261Z,4.40
2019-01-02T20:18:34.369Z,4.93
2019-01-02T20:21:04.029Z,6.07
2019-01-02T20:23:33.710Z,6.53
2019-01-02T20:26:03.315Z,7.20
2019-01-02T20:28:32.935Z,6.97
2019-01-02T20:31:02.512Z,5.93
2019-01-02T20:33:32.172Z,6.07
2019-01-02T20:36:01.768Z,6.00
2019-01-02T20:38:31.384Z,7.07
2019-01-02T20:41:01.037Z,5.57
2019-01-02T20:43:30.664Z,6.00
2019-01-02T20:46:00.273Z,5.43
2019-01-02T20:48:30.969Z,6.00
2019-01-02T20:51:00.573Z,5.67
2019-01-02T20:53:30.204Z,6.97
2019-01-02T20:55:59.882Z,6.33
2019-01-02T20:58:29.493Z,6.90
2019-01-02T21:00:59.104Z,6.03
2019-01-02T21:03:28.743Z,6.00
2019-01-02T21:05:58.434Z,5.63
2019-01-02T21:08:28.038Z,5.13
2019-01-02T21:10:57.714Z,5.53
2019-01-02T21:13:27.319Z,5.33
2019-01-02T21:15:56.926Z,4.90
2019-01-02T21:18:28.916Z,5.93
2019-01-02T21:21:00.569Z,9.33
2019-01-02T21:23:31.059Z,7.00
2019-01-02T21:26:00.670Z,5.97
2019-01-02T21:28:30.288Z,6.47
2019-01-02T21:30:59.891Z,5.50
2019-01-02T21:33:29.517Z,6.17
2019-01-02T21:35:59.140Z,6.80
2019-01-02T21:38:28.753Z,5.90
2019-01-02T21:40:58.452Z,6.13
2019-01-02T21:43:28.057Z,4.97
2019-01-02T21:45:57.653Z,4.90
2019-01-02T21:48:27.263Z,5.20
2019-01-02T21:50:56.939Z,4.97
2019-01-02T21:53:26.569Z,5.17
2019-01-02T21:55:56.165Z,5.20
2019-01-02T21:58:26.355Z,5.60
2019-01-02T22:00:56.063Z,5.33
2019-01-02T22:03:25.743Z,5.83
2019-01-02T22:05:55.339Z,4.97
2019-01-02T22:08:24.955Z,5.47
2019-01-02T22:10:54.555Z,5.63
2019-01-02T22:13:24.167Z,5.07
2019-01-02T22:15:53.759Z,5.93
2019-01-02T22:18:23.363Z,4.77
2019-01-02T22:20:52.971Z,6.30
2019-01-02T22:23:22.564Z,6.57
2019-01-02T22:25:52.164Z,6.13
2019-01-02T22:28:21.768Z,6.03
2019-01-02T22:30:51.382Z,5.73
2019-01-02T22:33:20.987Z,6.00
2019-01-02T22:35:50.599Z,6.67
2019-01-02T22:38:20.307Z,7.20
2019-01-02T22:40:49.919Z,5.50
2019-01-02T22:43:19.566Z,6.20
2019-01-02T22:45:49.175Z,6.03
2019-01-02T22:48:18.767Z,5.90
2019-01-02T22:50:48.386Z,5.93
2019-01-02T22:53:18.002Z,5.77
2019-01-02T22:55:48.415Z,5.83
2019-01-02T22:58:18.003Z,6.93
2019-01-02T23:01:05.587Z,6.33
2019-01-02T23:03:39.516Z,6.20
2019-01-02T23:06:13.725Z,6.17
2019-01-02T23:09:01.439Z,6.97
2019-01-02T23:11:35.831Z,6.87
2019-01-02T23:14:22.392Z,7.13
2019-01-02T23:17:08.905Z,6.97
2019-01-02T23:19:49.031Z,8.13
2019-01-02T23:22:32.475Z,9.43
2019-01-02T23:25:20.220Z,9.53
2019-01-02T23:28:03.460Z,9.07
2019-01-02T23:30:49.662Z,10.20
2019-01-02T23:33:29.904Z,9.40
2019-01-02T23:36:09.968Z,9.67
2019-01-02T23:38:53.205Z,9.37
2019-01-02T23:41:30.640Z,9.10
2019-01-02T23:44:01.886Z,9.73
2019-01-02T23:46:36.030Z,9.47
2019-01-02T23:49:07.278Z,9.27
2019-01-02T23:51:38.566Z,10.20
2019-01-02T23:54:09.812Z,10.70
2019-01-02T23:56:46.749Z,10.67
2019-01-02T23:59:20.808Z,10.37
